createdAt,value
2022-11-22T00:08:44.432Z,97512.32
2022-11-22T00:18:51.899Z,97509.11
2022-11-22T00:28:59.091Z,97509.06
2022-11-22T00:39:05.360Z,97518.23
2022-11-22T00:49:12.715Z,97521.43
2022-11-22T00:59:19.977Z,97530.52
2022-11-22T01:09:27.485Z,97534.69
2022-11-22T01:19:35.246Z,97545.61
2022-11-22T01:29:41.602Z,97544.05
2022-11-22T01:39:48.622Z,97534.80
2022-11-22T01:50:01.750Z,97523.67
2022-11-22T02:00:09.527Z,97520.54
2022-11-22T02:10:16.395Z,97516.81
2022-11-22T02:20:23.625Z,97505.40
2022-11-22T02:30:30.872Z,97493.39
2022-11-22T02:40:39.464Z,97486.15
2022-11-22T02:50:46.247Z,97484.30
2022-11-22T03:00:53.545Z,97484.81
2022-11-22T03:11:00.093Z,97478.14
2022-11-22T03:21:09.553Z,97466.91
2022-11-22T03:31:15.110Z,97448.23
2022-11-22T03:41:22.257Z,97446.38
2022-11-22T03:51:29.894Z,97450.50
2022-11-22T04:01:37.100Z,97460.21
2022-11-22T04:11:44.600Z,97463.98
2022-11-22T04:21:51.637Z,97456.24
2022-11-22T04:32:16.382Z,97455.37
2022-11-22T04:42:40.328Z,97451.27
2022-11-22T04:52:59.751Z,97448.15
2022-11-22T05:03:07.169Z,97440.60
2022-11-22T05:23:39.134Z,97445.21
2022-11-22T05:33:47.595Z,97456.69
2022-11-22T05:43:55.376Z,97459.19
2022-11-22T05:54:02.578Z,97445.56
2022-11-22T06:04:09.746Z,97444.59
2022-11-22T06:14:16.852Z,97453.48
2022-11-22T06:24:23.991Z,97451.36
2022-11-22T06:34:31.132Z,97466.27
2022-11-22T06:44:38.386Z,97473.30
2022-11-22T06:54:45.954Z,97475.90
2022-11-22T07:05:23.375Z,97480.95
2022-11-22T07:15:20.430Z,97502.02
2022-11-22T07:25:27.917Z,97508.11
2022-11-22T07:35:34.996Z,97515.36
2022-11-22T07:45:42.063Z,97503.30
2022-11-22T07:55:49.418Z,97501.06
2022-11-22T08:05:59.839Z,97501.99
2022-11-22T08:16:06.110Z,97512.40
2022-11-22T08:26:15.480Z,97518.73
2022-11-22T08:36:22.921Z,97510.09
2022-11-22T08:46:30.369Z,97504.71
2022-11-22T08:56:37.610Z,97508.32
2022-11-22T09:17:17.540Z,97481.45
2022-11-22T09:27:25.957Z,97479.44
2022-11-22T09:37:32.694Z,97480.20
2022-11-22T09:47:38.007Z,97475.42
2022-11-22T09:57:50.256Z,97470.79
2022-11-22T10:07:59.389Z,97466.67
2022-11-22T10:18:12.846Z,97457.65
2022-11-22T10:28:20.397Z,97461.89
2022-11-22T10:38:41.451Z,97450.76
2022-11-22T10:48:51.163Z,97453.98
2022-11-22T10:59:13.189Z,97452.70
2022-11-22T11:19:51.824Z,97426.91
2022-11-22T11:30:01.656Z,97424.10
2022-11-22T11:40:26.772Z,97412.25
2022-11-22T11:50:35.195Z,97414.05
2022-11-22T12:00:43.181Z,97412.70
2022-11-22T12:10:56.418Z,97417.73
2022-11-22T12:21:07.146Z,97414.59
2022-11-22T12:31:15.446Z,97406.52
2022-11-22T12:41:23.443Z,97403.19
2022-11-22T12:51:35.851Z,97407.68
2022-11-22T13:01:48.554Z,97416.16
2022-11-22T13:22:15.115Z,97405.70
2022-11-22T13:32:24.487Z,97402.73
2022-11-22T13:42:31.871Z,97405.29
2022-11-22T13:52:56.441Z,97395.21
2022-11-22T14:03:15.192Z,97393.88
2022-11-22T14:13:28.138Z,97393.76
2022-11-22T14:24:28.825Z,97398.76
2022-11-22T14:34:36.885Z,97402.70
2022-11-22T14:44:45.316Z,97404.80
2022-11-22T14:54:54.241Z,97401.41
2022-11-22T15:09:13.690Z,97415.58
2022-11-22T15:57:33.558Z,97431.40
2022-11-22T16:17:57.993Z,97430.86
2022-11-22T16:28:08.291Z,97429.05
2022-11-22T16:38:15.754Z,97432.48
2022-11-22T16:48:33.392Z,97434.48
2022-11-22T16:58:41.201Z,97442.92
2022-11-22T17:08:49.736Z,97452.75
2022-11-22T17:18:58.110Z,97454.13
2022-11-22T17:29:08.538Z,97468.77
2022-11-22T17:39:18.709Z,97470.80
2022-11-22T17:49:26.589Z,97467.90
2022-11-22T17:59:34.307Z,97475.63
2022-11-22T18:09:41.737Z,97481.34
2022-11-22T18:19:49.108Z,97490.82
2022-11-22T18:29:56.701Z,97496.77
2022-11-22T18:40:04.129Z,97501.73
2022-11-22T19:00:22.334Z,97494.09
2022-11-22T19:10:29.775Z,97490.30
2022-11-22T19:20:54.529Z,97484.11
2022-11-22T19:31:07.887Z,97490.14
2022-11-22T19:41:18.033Z,97505.16
2022-11-22T19:51:26.317Z,97511.75
2022-11-22T20:01:35.176Z,97519.50
2022-11-22T20:11:44.457Z,97525.72
2022-11-22T20:21:51.920Z,97531.41
2022-11-22T20:32:01.166Z,97535.84
2022-11-22T20:52:13.386Z,97540.67
2022-11-22T21:02:20.435Z,97538.10
2022-11-22T21:12:28.187Z,97552.13
2022-11-22T21:22:35.410Z,97550.02
2022-11-22T21:32:42.916Z,97539.25
2022-11-22T21:42:50.044Z,97537.04
2022-11-22T21:52:58.320Z,97547.38
2022-11-22T22:03:05.385Z,97555.67
2022-11-22T22:13:12.988Z,97567.56
2022-11-22T22:23:20.095Z,97561.69
2022-11-22T22:33:26.414Z,97562.46
2022-11-22T22:43:34.867Z,97571.38
2022-11-22T22:53:42.997Z,97572.30
2022-11-22T23:03:50.529Z,97569.82
2022-11-22T23:13:58.413Z,97559.25
2022-11-22T23:24:06.276Z,97561.48
2022-11-22T23:34:12.509Z,97568.34
2022-11-22T23:44:19.779Z,97551.86
2022-11-22T23:54:26.892Z,97547.08
